sensor_id;sensor_type;location;lat;lon;timestamp;pressure;altitude;pressure_sealevel;temperature;humidity
73016;BME280;61893;50.074;14.440;2022-12-11T00:01:16;97624.69;;;-0.34;81.74
73016;BME280;61893;50.074;14.440;2022-12-11T00:03:42;97620.50;;;-0.37;81.56
73016;BME280;61893;50.074;14.440;2022-12-11T00:06:11;97626.34;;;-0.33;81.71
73016;BME280;61893;50.074;14.440;2022-12-11T00:08:38;97614.22;;;-0.34;81.20
73016;BME280;61893;50.074;14.440;2022-12-11T00:11:07;97607.00;;;-0.31;81.35
73016;BME280;61893;50.074;14.440;2022-12-11T00:13:33;97603.91;;;-0.49;82.34
73016;BME280;61893;50.074;14.440;2022-12-11T00:15:59;97599.41;;;-0.59;83.02
73016;BME280;61893;50.074;14.440;2022-12-11T00:18:24;97593.25;;;-0.71;83.09
73016;BME280;61893;50.074;14.440;2022-12-11T00:20:50;97590.31;;;-0.79;83.00
73016;BME280;61893;50.074;14.440;2022-12-11T00:23:16;97599.81;;;-0.78;83.31
73016;BME280;61893;50.074;14.440;2022-12-11T00:25:43;97593.16;;;-0.82;83.38
73016;BME280;61893;50.074;14.440;2022-12-11T00:28:15;97600.25;;;-0.84;84.13
73016;BME280;61893;50.074;14.440;2022-12-11T00:30:44;97590.97;;;-0.88;83.72
73016;BME280;61893;50.074;14.440;2022-12-11T00:33:13;97593.78;;;-0.92;84.48
73016;BME280;61893;50.074;14.440;2022-12-11T00:35:42;97601.63;;;-0.92;84.10
73016;BME280;61893;50.074;14.440;2022-12-11T00:38:13;97593.97;;;-0.95;84.39
73016;BME280;61893;50.074;14.440;2022-12-11T00:40:40;97594.09;;;-0.96;83.82
73016;BME280;61893;50.074;14.440;2022-12-11T00:43:09;97594.59;;;-1.04;83.80
73016;BME280;61893;50.074;14.440;2022-12-11T00:45:43;97605.75;;;-1.15;83.99
73016;BME280;61893;50.074;14.440;2022-12-11T00:48:10;97604.81;;;-1.14;84.00
73016;BME280;61893;50.074;14.440;2022-12-11T00:50:37;97606.06;;;-1.19;84.88
73016;BME280;61893;50.074;14.440;2022-12-11T00:53:04;97611.28;;;-1.19;84.14
73016;BME280;61893;50.074;14.440;2022-12-11T00:55:31;97604.50;;;-1.22;84.60
73016;BME280;61893;50.074;14.440;2022-12-11T00:58:00;97608.69;;;-1.19;83.80
73016;BME280;61893;50.074;14.440;2022-12-11T01:00:26;97608.34;;;-1.27;83.80
73016;BME280;61893;50.074;14.440;2022-12-11T01:02:52;97607.50;;;-1.28;83.79
73016;BME280;61893;50.074;14.440;2022-12-11T01:05:18;97607.19;;;-1.23;84.07
73016;BME280;61893;50.074;14.440;2022-12-11T01:07:43;97619.63;;;-1.27;85.10
73016;BME280;61893;50.074;14.440;2022-12-11T01:10:11;97617.13;;;-1.28;84.40
73016;BME280;61893;50.074;14.440;2022-12-11T01:12:57;97615.84;;;-1.36;85.44
73016;BME280;61893;50.074;14.440;2022-12-11T01:15:27;97629.31;;;-1.29;85.23
73016;BME280;61893;50.074;14.440;2022-12-11T01:17:53;97633.63;;;-1.28;85.01
73016;BME280;61893;50.074;14.440;2022-12-11T01:20:21;97629.44;;;-1.30;84.91
73016;BME280;61893;50.074;14.440;2022-12-11T01:22:47;97626.59;;;-1.40;85.24
73016;BME280;61893;50.074;14.440;2022-12-11T01:25:16;97629.38;;;-1.43;84.17
73016;BME280;61893;50.074;14.440;2022-12-11T01:27:42;97629.09;;;-1.39;84.68
73016;BME280;61893;50.074;14.440;2022-12-11T01:30:08;97628.34;;;-1.41;84.06
73016;BME280;61893;50.074;14.440;2022-12-11T01:32:34;97626.47;;;-1.39;84.22
73016;BME280;61893;50.074;14.440;2022-12-11T01:35:05;97627.03;;;-1.33;84.47
73016;BME280;61893;50.074;14.440;2022-12-11T01:37:31;97624.41;;;-1.33;83.89
73016;BME280;61893;50.074;14.440;2022-12-11T01:39:57;97623.81;;;-1.24;83.85
73016;BME280;61893;50.074;14.440;2022-12-11T01:42:52;97627.16;;;-1.22;83.54
73016;BME280;61893;50.074;14.440;2022-12-11T01:47:47;97635.75;;;-1.07;83.38
73016;BME280;61893;50.074;14.440;2022-12-11T01:50:16;97641.59;;;-1.04;83.47
73016;BME280;61893;50.074;14.440;2022-12-11T01:52:45;97642.66;;;-0.94;83.53
73016;BME280;61893;50.074;14.440;2022-12-11T01:55:13;97646.63;;;-0.88;83.16
73016;BME280;61893;50.074;14.440;2022-12-11T01:57:42;97643.41;;;-0.92;82.76
73016;BME280;61893;50.074;14.440;2022-12-11T02:00:10;97640.53;;;-1.01;83.47
73016;BME280;61893;50.074;14.440;2022-12-11T02:02:36;97641.59;;;-1.04;83.33
73016;BME280;61893;50.074;14.440;2022-12-11T02:05:12;97633.00;;;-1.19;83.37
73016;BME280;61893;50.074;14.440;2022-12-11T02:07:47;97635.94;;;-1.10;83.85
73016;BME280;61893;50.074;14.440;2022-12-11T02:10:15;97627.81;;;-1.06;83.81
73016;BME280;61893;50.074;14.440;2022-12-11T02:15:34;97618.38;;;-1.21;83.07
73016;BME280;61893;50.074;14.440;2022-12-11T02:21:14;97622.69;;;-1.20;82.83
73016;BME280;61893;50.074;14.440;2022-12-11T02:23:55;97624.22;;;-1.30;82.12
73016;BME280;61893;50.074;14.440;2022-12-11T02:29:25;97627.44;;;-1.27;82.38
73016;BME280;61893;50.074;14.440;2022-12-11T02:31:59;97611.25;;;-1.32;83.06
73016;BME280;61893;50.074;14.440;2022-12-11T02:34:45;97617.13;;;-1.28;83.06
73016;BME280;61893;50.074;14.440;2022-12-11T02:37:19;97623.06;;;-1.26;82.73
73016;BME280;61893;50.074;14.440;2022-12-11T02:39:48;97613.13;;;-1.34;82.07
73016;BME280;61893;50.074;14.440;2022-12-11T02:42:17;97620.44;;;-1.26;83.04
73016;BME280;61893;50.074;14.440;2022-12-11T02:44:45;97623.91;;;-1.26;82.50
73016;BME280;61893;50.074;14.440;2022-12-11T02:47:14;97622.22;;;-1.27;82.41
73016;BME280;61893;50.074;14.440;2022-12-11T02:49:43;97626.13;;;-1.20;81.62
73016;BME280;61893;50.074;14.440;2022-12-11T02:52:13;97624.09;;;-1.29;81.66
73016;BME280;61893;50.074;14.440;2022-12-11T02:54:42;97619.06;;;-1.32;82.09
73016;BME280;61893;50.074;14.440;2022-12-11T02:57:22;97621.09;;;-1.23;81.51
73016;BME280;61893;50.074;14.440;2022-12-11T03:00:07;97627.66;;;-1.30;81.08
73016;BME280;61893;50.074;14.440;2022-12-11T03:02:48;97622.72;;;-1.34;81.32
73016;BME280;61893;50.074;14.440;2022-12-11T03:05:14;97622.09;;;-1.38;81.99
73016;BME280;61893;50.074;14.440;2022-12-11T03:07:42;97617.00;;;-1.40;81.80
73016;BME280;61893;50.074;14.440;2022-12-11T03:10:12;97628.19;;;-1.25;81.49
73016;BME280;61893;50.074;14.440;2022-12-11T03:12:42;97619.94;;;-1.19;80.87
73016;BME280;61893;50.074;14.440;2022-12-11T03:15:13;97623.59;;;-1.21;80.91
73016;BME280;61893;50.074;14.440;2022-12-11T03:21:02;97616.09;;;-1.13;79.74
73016;BME280;61893;50.074;14.440;2022-12-11T03:24:07;97626.75;;;-1.16;79.97
73016;BME280;61893;50.074;14.440;2022-12-11T03:26:39;97625.56;;;-1.25;80.04
73016;BME280;61893;50.074;14.440;2022-12-11T03:29:25;97631.75;;;-1.13;80.03
73016;BME280;61893;50.074;14.440;2022-12-11T03:34:44;97641.28;;;-0.99;79.84
73016;BME280;61893;50.074;14.440;2022-12-11T03:37:18;97631.59;;;-0.97;79.82
73016;BME280;61893;50.074;14.440;2022-12-11T03:39:49;97635.66;;;-0.93;79.60
73016;BME280;61893;50.074;14.440;2022-12-11T03:42:19;97642.31;;;-1.02;79.39
73016;BME280;61893;50.074;14.440;2022-12-11T03:44:51;97640.25;;;-0.97;79.19
73016;BME280;61893;50.074;14.440;2022-12-11T03:47:36;97644.94;;;-0.89;79.14
73016;BME280;61893;50.074;14.440;2022-12-11T03:50:09;97639.84;;;-0.91;79.09
73016;BME280;61893;50.074;14.440;2022-12-11T03:52:39;97640.47;;;-0.87;78.78
73016;BME280;61893;50.074;14.440;2022-12-11T03:55:09;97646.44;;;-0.85;78.59
73016;BME280;61893;50.074;14.440;2022-12-11T03:57:37;97646.63;;;-0.88;79.03
73016;BME280;61893;50.074;14.440;2022-12-11T04:00:14;97655.91;;;-0.84;78.96
73016;BME280;61893;50.074;14.440;2022-12-11T04:02:41;97654.63;;;-1.04;80.22
73016;BME280;61893;50.074;14.440;2022-12-11T04:05:08;97652.34;;;-0.96;80.05
73016;BME280;61893;50.074;14.440;2022-12-11T04:07:37;97644.53;;;-0.96;79.31
73016;BME280;61893;50.074;14.440;2022-12-11T04:10:08;97636.97;;;-1.00;79.67
73016;BME280;61893;50.074;14.440;2022-12-11T04:12:34;97634.69;;;-1.05;80.00
73016;BME280;61893;50.074;14.440;2022-12-11T04:15:05;97640.25;;;-0.97;79.77
73016;BME280;61893;50.074;14.440;2022-12-11T04:17:33;97633.88;;;-0.93;79.40
73016;BME280;61893;50.074;14.440;2022-12-11T04:20:18;97638.75;;;-1.01;79.12
73016;BME280;61893;50.074;14.440;2022-12-11T04:23:04;97633.03;;;-1.06;79.67
73016;BME280;61893;50.074;14.440;2022-12-11T04:25:48;97638.13;;;-1.04;79.73
73016;BME280;61893;50.074;14.440;2022-12-11T04:28:14;97631.75;;;-1.00;80.75
73016;BME280;61893;50.074;14.440;2022-12-11T04:30:40;97640.00;;;-1.06;79.39
73016;BME280;61893;50.074;14.440;2022-12-11T04:33:07;97637.72;;;-1.11;80.27
73016;BME280;61893;50.074;14.440;2022-12-11T04:35:36;97641.16;;;-1.10;80.52
73016;BME280;61893;50.074;14.440;2022-12-11T04:38:11;97629.06;;;-1.11;80.18
73016;BME280;61893;50.074;14.440;2022-12-11T04:40:36;97625.38;;;-1.09;80.58
73016;BME280;61893;50.074;14.440;2022-12-11T04:43:02;97624.13;;;-1.16;80.13
73016;BME280;61893;50.074;14.440;2022-12-11T04:45:37;97625.09;;;-1.17;80.92
73016;BME280;61893;50.074;14.440;2022-12-11T04:48:02;97628.06;;;-1.23;81.47
73016;BME280;61893;50.074;14.440;2022-12-11T04:50:28;97626.91;;;-1.32;81.61
73016;BME280;61893;50.074;14.440;2022-12-11T04:52:57;97621.06;;;-1.36;81.63
73016;BME280;61893;50.074;14.440;2022-12-11T04:55:22;97625.66;;;-1.39;82.23
73016;BME280;61893;50.074;14.440;2022-12-11T04:57:50;97609.66;;;-1.47;82.05
73016;BME280;61893;50.074;14.440;2022-12-11T05:00:16;97603.13;;;-1.40;82.73
73016;BME280;61893;50.074;14.440;2022-12-11T05:02:42;97607.25;;;-1.38;82.03
73016;BME280;61893;50.074;14.440;2022-12-11T05:05:09;97613.56;;;-1.40;81.37
73016;BME280;61893;50.074;14.440;2022-12-11T05:07:58;97614.19;;;-1.37;82.58
73016;BME280;61893;50.074;14.440;2022-12-11T05:10:38;97613.44;;;-1.39;82.28
73016;BME280;61893;50.074;14.440;2022-12-11T05:13:08;97613.44;;;-1.39;81.27
73016;BME280;61893;50.074;14.440;2022-12-11T05:15:33;97609.38;;;-1.43;81.58
73016;BME280;61893;50.074;14.440;2022-12-11T05:18:02;97600.50;;;-1.40;81.06
73016;BME280;61893;50.074;14.440;2022-12-11T05:20:33;97608.34;;;-1.40;80.81
73016;BME280;61893;50.074;14.440;2022-12-11T05:22:59;97597.03;;;-1.41;80.95
73016;BME280;61893;50.074;14.440;2022-12-11T05:25:25;97601.41;;;-1.54;81.26
73016;BME280;61893;50.074;14.440;2022-12-11T05:27:50;97599.31;;;-1.49;80.65
73016;BME280;61893;50.074;14.440;2022-12-11T05:30:16;97602.63;;;-1.60;80.59
73016;BME280;61893;50.074;14.440;2022-12-11T05:32:42;97598.34;;;-1.61;80.31
73016;BME280;61893;50.074;14.440;2022-12-11T05:35:08;97604.59;;;-1.63;80.83
73016;BME280;61893;50.074;14.440;2022-12-11T05:37:55;97606.63;;;-1.54;80.83
73016;BME280;61893;50.074;14.440;2022-12-11T05:40:20;97597.31;;;-1.58;80.25
73016;BME280;61893;50.074;14.440;2022-12-11T05:42:46;97589.69;;;-1.61;80.48
73016;BME280;61893;50.074;14.440;2022-12-11T05:45:12;97597.63;;;-1.63;80.47
73016;BME280;61893;50.074;14.440;2022-12-11T05:47:38;97596.75;;;-1.63;80.23
73016;BME280;61893;50.074;14.440;2022-12-11T05:50:04;97594.56;;;-1.69;80.52
73016;BME280;61893;50.074;14.440;2022-12-11T05:52:30;97594.41;;;-1.81;80.90
73016;BME280;61893;50.074;14.440;2022-12-11T05:55:08;97601.66;;;-1.71;81.40
73016;BME280;61893;50.074;14.440;2022-12-11T05:57:33;97603.66;;;-1.62;80.62
73016;BME280;61893;50.074;14.440;2022-12-11T05:59:59;97598.66;;;-1.65;80.23
73016;BME280;61893;50.074;14.440;2022-12-11T06:02:25;97601.97;;;-1.63;79.72
73016;BME280;61893;50.074;14.440;2022-12-11T06:05:14;97607.53;;;-1.55;79.20
73016;BME280;61893;50.074;14.440;2022-12-11T06:07:40;97608.69;;;-1.59;79.06
73016;BME280;61893;50.074;14.440;2022-12-11T06:10:06;97617.06;;;-1.54;79.22
73016;BME280;61893;50.074;14.440;2022-12-11T06:12:32;97626.75;;;-1.56;78.67
73016;BME280;61893;50.074;14.440;2022-12-11T06:14:57;97620.97;;;-1.61;78.62
73016;BME280;61893;50.074;14.440;2022-12-11T06:17:23;97627.78;;;-1.59;78.50
73016;BME280;61893;50.074;14.440;2022-12-11T06:19:57;97630.59;;;-1.62;79.10
73016;BME280;61893;50.074;14.440;2022-12-11T06:22:23;97634.22;;;-1.64;78.27
73016;BME280;61893;50.074;14.440;2022-12-11T06:24:48;97637.13;;;-1.69;78.83
73016;BME280;61893;50.074;14.440;2022-12-11T06:27:20;97629.84;;;-1.64;78.52
73016;BME280;61893;50.074;14.440;2022-12-11T06:29:46;97644.97;;;-1.69;78.14
73016;BME280;61893;50.074;14.440;2022-12-11T06:32:12;97641.41;;;-1.68;77.99
73016;BME280;61893;50.074;14.440;2022-12-11T06:34:39;97649.53;;;-1.72;78.03
73016;BME280;61893;50.074;14.440;2022-12-11T06:37:05;97654.38;;;-1.81;78.03
73016;BME280;61893;50.074;14.440;2022-12-11T06:39:31;97654.09;;;-1.76;79.07
73016;BME280;61893;50.074;14.440;2022-12-11T06:41:57;97640.03;;;-1.73;77.90
73016;BME280;61893;50.074;14.440;2022-12-11T06:44:23;97649.16;;;-1.81;78.08
73016;BME280;61893;50.074;14.440;2022-12-11T06:47:08;97650.84;;;-1.79;78.26
73016;BME280;61893;50.074;14.440;2022-12-11T06:49:33;97639.69;;;-1.82;78.17
73016;BME280;61893;50.074;14.440;2022-12-11T06:51:59;97647.78;;;-1.86;78.42
73016;BME280;61893;50.074;14.440;2022-12-11T06:54:28;97639.25;;;-1.88;78.76
73016;BME280;61893;50.074;14.440;2022-12-11T06:56:56;97636.72;;;-1.90;79.03
73016;BME280;61893;50.074;14.440;2022-12-11T06:59:21;97648.84;;;-1.89;78.73
73016;BME280;61893;50.074;14.440;2022-12-11T07:01:48;97649.88;;;-1.91;79.11
73016;BME280;61893;50.074;14.440;2022-12-11T07:04:23;97653.31;;;-1.91;78.43
73016;BME280;61893;50.074;14.440;2022-12-11T07:06:58;97656.81;;;-1.92;79.05
73016;BME280;61893;50.074;14.440;2022-12-11T07:09:23;97659.38;;;-2.05;79.07
73016;BME280;61893;50.074;14.440;2022-12-11T07:11:52;97665.41;;;-2.04;79.17
73016;BME280;61893;50.074;14.440;2022-12-11T07:14:21;97658.44;;;-2.04;79.34
73016;BME280;61893;50.074;14.440;2022-12-11T07:17:07;97663.75;;;-2.05;79.00
73016;BME280;61893;50.074;14.440;2022-12-11T07:19:33;97666.38;;;-2.19;79.32
73016;BME280;61893;50.074;14.440;2022-12-11T07:21:59;97668.78;;;-2.16;79.70
73016;BME280;61893;50.074;14.440;2022-12-11T07:24:25;97664.31;;;-2.14;79.49
73016;BME280;61893;50.074;14.440;2022-12-11T07:26:57;97669.63;;;-2.16;80.30
73016;BME280;61893;50.074;14.440;2022-12-11T07:29:38;97673.44;;;-2.07;80.51
73016;BME280;61893;50.074;14.440;2022-12-11T07:33:09;97673.16;;;-2.02;80.33
73016;BME280;61893;50.074;14.440;2022-12-11T07:35:46;97674.00;;;-2.02;80.12
73016;BME280;61893;50.074;14.440;2022-12-11T07:39:27;97685.50;;;-2.06;80.29
73016;BME280;61893;50.074;14.440;2022-12-11T07:41:54;97675.28;;;-2.09;80.67
73016;BME280;61893;50.074;14.440;2022-12-11T07:44:22;97676.00;;;-1.93;80.56
73016;BME280;61893;50.074;14.440;2022-12-11T07:46:51;97677.41;;;-1.87;80.43
73016;BME280;61893;50.074;14.440;2022-12-11T07:49:17;97683.34;;;-1.71;80.16
73016;BME280;61893;50.074;14.440;2022-12-11T07:51:58;97677.44;;;-1.60;79.27
73016;BME280;61893;50.074;14.440;2022-12-11T07:54:23;97685.88;;;-1.42;78.84
73016;BME280;61893;50.074;14.440;2022-12-11T07:56:55;97683.13;;;-1.41;78.57
73016;BME280;61893;50.074;14.440;2022-12-11T07:59:21;97683.78;;;-1.37;78.10
73016;BME280;61893;50.074;14.440;2022-12-11T08:01:47;97681.91;;;-1.35;77.55
73016;BME280;61893;50.074;14.440;2022-12-11T08:04:15;97689.94;;;-1.38;76.67
73016;BME280;61893;50.074;14.440;2022-12-11T08:06:50;97686.91;;;-1.32;76.43
73016;BME280;61893;50.074;14.440;2022-12-11T08:09:15;97681.69;;;-1.32;76.78
73016;BME280;61893;50.074;14.440;2022-12-11T08:11:41;97677.38;;;-1.19;76.66
73016;BME280;61893;50.074;14.440;2022-12-11T08:14:11;97689.59;;;-1.19;76.39
73016;BME280;61893;50.074;14.440;2022-12-11T08:16:37;97682.38;;;-1.16;76.14
73016;BME280;61893;50.074;14.440;2022-12-11T08:19:05;97680.66;;;-1.02;75.69
73016;BME280;61893;50.074;14.440;2022-12-11T08:21:31;97674.81;;;-1.06;75.53
73016;BME280;61893;50.074;14.440;2022-12-11T08:23:56;97676.06;;;-1.11;76.65
73016;BME280;61893;50.074;14.440;2022-12-11T08:26:25;97681.19;;;-0.97;76.52
73016;BME280;61893;50.074;14.440;2022-12-11T08:28:53;97682.56;;;-0.92;75.55
73016;BME280;61893;50.074;14.440;2022-12-11T08:31:20;97684.44;;;-0.94;75.26
73016;BME280;61893;50.074;14.440;2022-12-11T08:34:03;97690.50;;;-0.80;75.45
73016;BME280;61893;50.074;14.440;2022-12-11T08:36:30;97687.59;;;-0.76;75.49
73016;BME280;61893;50.074;14.440;2022-12-11T08:39:08;97679.00;;;-0.78;75.32
73016;BME280;61893;50.074;14.440;2022-12-11T08:42:11;97677.88;;;-0.74;74.71
73016;BME280;61893;50.074;14.440;2022-12-11T08:44:54;97679.47;;;-0.71;75.04
73016;BME280;61893;50.074;14.440;2022-12-11T08:47:49;97679.38;;;-0.57;74.79
73016;BME280;61893;50.074;14.440;2022-12-11T08:51:37;97682.59;;;-0.40;74.00
73016;BME280;61893;50.074;14.440;2022-12-11T08:54:08;97678.00;;;-0.37;73.85
73016;BME280;61893;50.074;14.440;2022-12-11T08:56:41;97682.81;;;-0.31;73.91
73016;BME280;61893;50.074;14.440;2022-12-11T08:59:16;97684.78;;;-0.21;73.09
73016;BME280;61893;50.074;14.440;2022-12-11T09:01:48;97680.47;;;-0.10;73.00
73016;BME280;61893;50.074;14.440;2022-12-11T09:04:29;97676.84;;;-0.20;72.17
73016;BME280;61893;50.074;14.440;2022-12-11T09:07:02;97677.69;;;-0.19;72.96
73016;BME280;61893;50.074;14.440;2022-12-11T09:10:23;97677.56;;;-0.43;72.34
73016;BME280;61893;50.074;14.440;2022-12-11T09:13:03;97675.16;;;-0.47;71.30
73016;BME280;61893;50.074;14.440;2022-12-11T09:15:40;97671.72;;;-0.34;71.67
73016;BME280;61893;50.074;14.440;2022-12-11T09:18:39;97681.94;;;-0.18;70.49
73016;BME280;61893;50.074;14.440;2022-12-11T09:22:00;97675.16;;;-0.21;70.93
73016;BME280;61893;50.074;14.440;2022-12-11T09:24:26;97675.97;;;-0.20;69.42
73016;BME280;61893;50.074;14.440;2022-12-11T09:26:58;97679.94;;;-0.02;69.48
73016;BME280;61893;50.074;14.440;2022-12-11T09:29:26;97687.97;;;0.08;68.65
73016;BME280;61893;50.074;14.440;2022-12-11T09:31:59;97684.75;;;-0.09;69.34
73016;BME280;61893;50.074;14.440;2022-12-11T09:34:25;97684.03;;;-0.11;68.69
73016;BME280;61893;50.074;14.440;2022-12-11T09:36:50;97691.66;;;-0.08;68.59
73016;BME280;61893;50.074;14.440;2022-12-11T09:39:39;97697.41;;;-0.15;68.17
73016;BME280;61893;50.074;14.440;2022-12-11T09:42:24;97693.78;;;-0.26;68.95
73016;BME280;61893;50.074;14.440;2022-12-11T09:45:02;97682.16;;;-0.21;67.44
73016;BME280;61893;50.074;14.440;2022-12-11T09:47:38;97681.94;;;-0.18;68.85
73016;BME280;61893;50.074;14.440;2022-12-11T10:01:09;97663.69;;;-0.57;68.73
73016;BME280;61893;50.074;14.440;2022-12-11T10:06:24;97655.53;;;-0.39;67.89
73016;BME280;61893;50.074;14.440;2022-12-11T10:16:46;97665.44;;;-0.32;64.82
73016;BME280;61893;50.074;14.440;2022-12-11T10:19:30;97660.97;;;-0.42;64.97
73016;BME280;61893;50.074;14.440;2022-12-11T10:21:58;97662.13;;;-0.59;64.77
73016;BME280;61893;50.074;14.440;2022-12-11T10:24:36;97663.03;;;-0.60;65.35
73016;BME280;61893;50.074;14.440;2022-12-11T10:27:14;97660.97;;;-0.68;63.64
73016;BME280;61893;50.074;14.440;2022-12-11T10:29:40;97661.16;;;-0.71;64.58
73016;BME280;61893;50.074;14.440;2022-12-11T10:32:14;97656.88;;;-0.72;64.26
73016;BME280;61893;50.074;14.440;2022-12-11T10:35:04;97650.38;;;-0.66;64.92
73016;BME280;61893;50.074;14.440;2022-12-11T10:37:32;97646.84;;;-0.53;64.15
73016;BME280;61893;50.074;14.440;2022-12-11T10:40:00;97655.63;;;-0.28;62.63
73016;BME280;61893;50.074;14.440;2022-12-11T10:42:32;97647.03;;;-0.30;62.14
73016;BME280;61893;50.074;14.440;2022-12-11T10:45:03;97654.63;;;-0.14;62.90
73016;BME280;61893;50.074;14.440;2022-12-11T10:47:29;97646.16;;;-0.05;60.86
73016;BME280;61893;50.074;14.440;2022-12-11T10:49:57;97640.81;;;0.09;61.72
73016;BME280;61893;50.074;14.440;2022-12-11T10:52:34;97627.50;;;0.12;62.10
73016;BME280;61893;50.074;14.440;2022-12-11T10:55:06;97628.25;;;0.14;61.50
73016;BME280;61893;50.074;14.440;2022-12-11T10:57:42;97624.13;;;0.23;61.27
73016;BME280;61893;50.074;14.440;2022-12-11T11:03:20;97617.97;;;0.11;60.13
73016;BME280;61893;50.074;14.440;2022-12-11T11:05:47;97615.47;;;0.10;60.38
73016;BME280;61893;50.074;14.440;2022-12-11T11:08:23;97629.84;;;-0.09;61.56
73016;BME280;61893;50.074;14.440;2022-12-11T11:11:21;97612.88;;;0.10;61.68
73016;BME280;61893;50.074;14.440;2022-12-11T11:13:47;97611.38;;;0.18;60.65
73016;BME280;61893;50.074;14.440;2022-12-11T11:16:16;97611.13;;;0.21;61.16
73016;BME280;61893;50.074;14.440;2022-12-11T11:18:49;97605.81;;;0.23;60.73
73016;BME280;61893;50.074;14.440;2022-12-11T11:21:31;97603.34;;;0.33;61.04
73016;BME280;61893;50.074;14.440;2022-12-11T11:24:01;97606.81;;;0.33;61.84
73016;BME280;61893;50.074;14.440;2022-12-11T11:26:32;97600.84;;;0.31;59.98
73016;BME280;61893;50.074;14.440;2022-12-11T11:28:59;97598.19;;;0.44;60.29
73016;BME280;61893;50.074;14.440;2022-12-11T11:31:34;97593.34;;;0.27;60.89
73016;BME280;61893;50.074;14.440;2022-12-11T11:34:05;97588.31;;;0.24;61.83
73016;BME280;61893;50.074;14.440;2022-12-11T11:36:34;97589.75;;;0.28;61.70
73016;BME280;61893;50.074;14.440;2022-12-11T11:39:22;97593.22;;;0.28;62.10
73016;BME280;61893;50.074;14.440;2022-12-11T11:47:26;97592.94;;;0.20;61.29
73016;BME280;61893;50.074;14.440;2022-12-11T11:50:21;97590.81;;;0.25;61.21
73016;BME280;61893;50.074;14.440;2022-12-11T11:53:15;97588.50;;;-0.04;62.03
73016;BME280;61893;50.074;14.440;2022-12-11T11:56:21;97583.72;;;0.03;63.21
73016;BME280;61893;50.074;14.440;2022-12-11T11:58:50;97583.88;;;0.13;63.10
73016;BME280;61893;50.074;14.440;2022-12-11T12:01:18;97586.34;;;-0.10;63.51
73016;BME280;61893;50.074;14.440;2022-12-11T12:03:45;97588.50;;;-0.28;63.95
73016;BME280;61893;50.074;14.440;2022-12-11T12:09:45;97590.28;;;-0.28;64.58
73016;BME280;61893;50.074;14.440;2022-12-11T12:12:52;97588.81;;;-0.32;63.27
73016;BME280;61893;50.074;14.440;2022-12-11T12:18:23;97583.50;;;-0.43;64.40
73016;BME280;61893;50.074;14.440;2022-12-11T12:28:39;97568.72;;;-0.94;65.09
73016;BME280;61893;50.074;14.440;2022-12-11T12:34:54;97574.31;;;-0.75;64.87
73016;BME280;61893;50.074;14.440;2022-12-11T12:45:43;97561.47;;;-0.78;62.48
73016;BME280;61893;50.074;14.440;2022-12-11T12:48:25;97569.34;;;-0.91;64.44
73016;BME280;61893;50.074;14.440;2022-12-11T12:50:55;97571.81;;;-0.89;64.57
73016;BME280;61893;50.074;14.440;2022-12-11T12:53:25;97566.72;;;-0.91;64.71
73016;BME280;61893;50.074;14.440;2022-12-11T12:55:53;97569.13;;;-0.87;64.63
73016;BME280;61893;50.074;14.440;2022-12-11T12:58:48;97563.06;;;-1.14;63.86
73016;BME280;61893;50.074;14.440;2022-12-11T13:01:18;97567.53;;;-1.28;65.22
73016;BME280;61893;50.074;14.440;2022-12-11T13:04:05;97563.84;;;-1.51;65.45
73016;BME280;61893;50.074;14.440;2022-12-11T13:06:44;97561.03;;;-1.48;66.87
73016;BME280;61893;50.074;14.440;2022-12-11T13:11:47;97563.56;;;-1.34;66.67
73016;BME280;61893;50.074;14.440;2022-12-11T13:16:46;97556.94;;;-1.52;66.22
73016;BME280;61893;50.074;14.440;2022-12-11T13:21:42;97563.31;;;-1.56;65.34
73016;BME280;61893;50.074;14.440;2022-12-11T13:26:48;97563.59;;;-1.61;65.72
73016;BME280;61893;50.074;14.440;2022-12-11T13:29:36;97559.00;;;-1.70;66.60
73016;BME280;61893;50.074;14.440;2022-12-11T13:34:42;97556.03;;;-1.78;66.17
73016;BME280;61893;50.074;14.440;2022-12-11T13:40:22;97557.03;;;-1.94;65.32
73016;BME280;61893;50.074;14.440;2022-12-11T13:42:59;97562.44;;;-1.97;66.14
73016;BME280;61893;50.074;14.440;2022-12-11T13:48:22;97564.50;;;-1.75;63.45
73016;BME280;61893;50.074;14.440;2022-12-11T13:50:53;97564.81;;;-1.67;62.19
73016;BME280;61893;50.074;14.440;2022-12-11T13:53:22;97567.56;;;-1.68;61.87
73016;BME280;61893;50.074;14.440;2022-12-11T13:56:05;97569.22;;;-1.67;62.55
73016;BME280;61893;50.074;14.440;2022-12-11T13:58:36;97571.00;;;-1.68;61.67
73016;BME280;61893;50.074;14.440;2022-12-11T14:06:40;97579.59;;;-1.53;61.64
73016;BME280;61893;50.074;14.440;2022-12-11T14:09:07;97582.19;;;-1.53;61.19
73016;BME280;61893;50.074;14.440;2022-12-11T14:11:37;97580.28;;;-1.64;62.92
73016;BME280;61893;50.074;14.440;2022-12-11T14:14:23;97583.59;;;-1.74;62.79
73016;BME280;61893;50.074;14.440;2022-12-11T14:16:50;97587.47;;;-1.67;62.86
73016;BME280;61893;50.074;14.440;2022-12-11T14:19:19;97581.97;;;-1.63;63.76
73016;BME280;61893;50.074;14.440;2022-12-11T14:22:03;97586.47;;;-1.52;63.10
73016;BME280;61893;50.074;14.440;2022-12-11T14:24:30;97592.53;;;-1.51;61.53
73016;BME280;61893;50.074;14.440;2022-12-11T14:26:57;97594.09;;;-1.49;61.88
73016;BME280;61893;50.074;14.440;2022-12-11T14:29:31;97581.97;;;-1.63;61.17
73016;BME280;61893;50.074;14.440;2022-12-11T14:32:06;97594.81;;;-1.60;61.84
73016;BME280;61893;50.074;14.440;2022-12-11T14:34:36;97591.47;;;-1.49;60.33
73016;BME280;61893;50.074;14.440;2022-12-11T14:37:06;97590.75;;;-1.51;61.66
73016;BME280;61893;50.074;14.440;2022-12-11T14:39:43;97587.38;;;-1.66;60.50
73016;BME280;61893;50.074;14.440;2022-12-11T14:42:22;97594.47;;;-1.68;60.01
73016;BME280;61893;50.074;14.440;2022-12-11T14:45:04;97593.88;;;-1.86;61.11
73016;BME280;61893;50.074;14.440;2022-12-11T14:47:37;97592.50;;;-1.91;59.88
73016;BME280;61893;50.074;14.440;2022-12-11T14:52:40;97594.13;;;-2.03;60.99
73016;BME280;61893;50.074;14.440;2022-12-11T14:55:35;97602.03;;;-2.05;61.26
73016;BME280;61893;50.074;14.440;2022-12-11T14:58:17;97591.69;;;-2.06;61.92
73016;BME280;61893;50.074;14.440;2022-12-11T15:01:03;97599.06;;;-2.13;62.18